Time;durP1;ratioP1;P1;durP2;ratioP2;P2;SDS_P1;SDS_P2;PMS_P1;PMS_P2;Temp;Humidity;BMP_temperature;BMP_pressure;BME280_temperature;BME280_humidity;BME280_pressure;Samples;Min_cycle;Max_cycle;Signal;HPM_P1;HPM_P2
2021/01/18 00:00:10;;;;;;;41.80;21.52;;;-2.20;99.90;;;;;;5140428;27;20204;-82
2021/01/18 00:02:37;;;;;;;36.13;19.73;;;-2.20;99.90;;;;;;5138610;27;20196;-83
2021/01/18 00:05:05;;;;;;;34.90;21.02;;;-2.20;99.90;;;;;;5139260;27;20200;-80
2021/01/18 00:07:42;;;;;;;32.80;19.05;;;-2.30;99.90;;;;;;5140310;27;20687;-82
2021/01/18 00:10:12;;;;;;;39.95;22.05;;;-2.40;99.90;;;;;;5140278;27;20188;-82
2021/01/18 00:12:38;;;;;;;34.33;23.70;;;-2.40;99.90;;;;;;5139046;27;20222;-80
2021/01/18 00:15:06;;;;;;;33.45;20.52;;;-2.30;99.90;;;;;;5140356;27;20252;-78
2021/01/18 00:17:34;;;;;;;38.00;22.08;;;-2.40;99.90;;;;;;5139092;27;20226;-80
2021/01/18 00:20:00;;;;;;;33.10;21.00;;;-2.40;99.90;;;;;;5138881;27;20215;-81
2021/01/18 00:22:27;;;;;;;30.73;18.95;;;-2.40;99.90;;;;;;5139273;27;20197;-81
2021/01/18 00:24:56;;;;;;;29.88;20.17;;;-2.40;99.90;;;;;;5139771;27;20672;-82
2021/01/18 00:27:23;;;;;;;41.85;22.83;;;-2.40;99.90;;;;;;5139110;27;20220;-81
2021/01/18 00:29:49;;;;;;;37.40;23.15;;;-2.50;99.90;;;;;;5137371;27;20287;-81
2021/01/18 00:32:16;;;;;;;33.40;20.60;;;-2.50;99.90;;;;;;5137383;27;20235;-81
2021/01/18 00:34:42;;;;;;;36.05;20.55;;;-2.50;99.90;;;;;;5137577;27;20222;-81
2021/01/18 00:37:09;;;;;;;31.75;20.25;;;-2.50;99.90;;;;;;5138195;27;20216;-82
2021/01/18 00:39:36;;;;;;;30.60;21.55;;;-2.60;99.90;;;;;;5145014;27;20200;-81
2021/01/18 00:42:04;;;;;;;38.05;21.38;;;-2.60;99.90;;;;;;5138246;27;20192;-81
2021/01/18 00:44:30;;;;;;;36.83;21.10;;;-2.70;99.90;;;;;;5139004;28;20690;-80
2021/01/18 00:46:57;;;;;;;43.75;24.30;;;-2.70;99.90;;;;;;5139478;28;20825;-81
2021/01/18 00:49:23;;;;;;;38.53;24.02;;;-2.70;99.90;;;;;;5142600;28;20271;-80
2021/01/18 00:51:50;;;;;;;33.80;22.23;;;-2.60;99.90;;;;;;5144780;28;20216;-80
2021/01/18 00:54:16;;;;;;;36.92;21.08;;;-2.60;99.90;;;;;;5138874;28;20581;-81
2021/01/18 00:56:43;;;;;;;37.85;23.00;;;-2.60;99.90;;;;;;5136960;28;20236;-81
2021/01/18 00:59:09;;;;;;;36.38;22.60;;;-2.70;99.90;;;;;;5136920;28;20195;-81
2021/01/18 01:01:36;;;;;;;38.67;23.67;;;-2.70;99.90;;;;;;5136402;28;20200;-80
2021/01/18 01:04:02;;;;;;;50.63;25.85;;;-2.70;99.90;;;;;;5137344;28;20204;-80
2021/01/18 01:06:33;;;;;;;44.35;24.30;;;-2.70;99.90;;;;;;5137105;28;20225;-81
2021/01/18 01:08:59;;;;;;;43.25;23.58;;;-2.70;99.90;;;;;;5136706;28;20732;-81
2021/01/18 01:11:25;;;;;;;42.40;22.83;;;-2.70;99.90;;;;;;5137729;28;20216;-80
2021/01/18 01:13:52;;;;;;;36.03;22.48;;;-2.80;99.90;;;;;;5137871;28;20199;-81
2021/01/18 01:16:19;;;;;;;37.95;23.13;;;-2.80;99.90;;;;;;5137162;28;20216;-80
2021/01/18 01:18:47;;;;;;;32.53;20.20;;;-2.90;99.90;;;;;;5137377;28;20204;-82
2021/01/18 01:21:13;;;;;;;38.30;24.05;;;-2.90;99.90;;;;;;5136578;28;20201;-79
2021/01/18 01:23:39;;;;;;;32.05;20.40;;;-2.90;99.90;;;;;;5138311;28;20680;-81
2021/01/18 01:26:06;;;;;;;40.75;21.98;;;-2.90;99.90;;;;;;5136781;28;20224;-81
2021/01/18 01:28:32;;;;;;;41.85;23.10;;;-3.00;99.90;;;;;;5137258;28;20200;-81
2021/01/18 01:30:59;;;;;;;39.45;21.73;;;-3.00;99.90;;;;;;5136975;28;20576;-82
2021/01/18 01:33:26;;;;;;;32.63;20.65;;;-3.00;99.90;;;;;;5136570;27;20295;-81
2021/01/18 01:35:52;;;;;;;39.63;21.85;;;-3.00;99.90;;;;;;5140456;27;20212;-81
2021/01/18 01:38:19;;;;;;;43.13;22.95;;;-3.00;99.90;;;;;;5140473;27;20200;-81
2021/01/18 01:40:45;;;;;;;46.38;24.00;;;-3.00;99.90;;;;;;5140383;27;20200;-81
2021/01/18 01:43:11;;;;;;;40.72;23.52;;;-3.10;99.90;;;;;;5140861;27;20193;-81
2021/01/18 01:45:37;;;;;;;34.65;21.92;;;-3.10;99.90;;;;;;5140750;27;20696;-81
2021/01/18 01:48:06;;;;;;;40.03;20.92;;;-3.10;99.90;;;;;;5148983;27;20245;-79
2021/01/18 01:50:36;;;;;;;43.25;20.92;;;-3.00;99.90;;;;;;5154460;27;20259;-79
2021/01/18 01:53:10;;;;;;;41.42;23.33;;;-3.10;99.90;;;;;;5155223;27;20212;-79
2021/01/18 01:55:37;;;;;;;39.55;20.70;;;-3.10;99.90;;;;;;5148724;27;20184;-82
2021/01/18 01:58:05;;;;;;;45.10;23.65;;;-3.10;99.90;;;;;;5142497;27;20232;-80
2021/01/18 02:00:37;;;;;;;36.13;23.77;;;-3.10;99.90;;;;;;5150089;27;20214;-79
2021/01/18 02:03:08;;;;;;;43.08;21.48;;;-3.20;99.90;;;;;;5149369;27;20180;-81
2021/01/18 02:05:34;;;;;;;45.78;23.83;;;-3.20;99.90;;;;;;5143723;27;20189;-81
2021/01/18 02:08:03;;;;;;;40.25;22.48;;;-3.20;99.90;;;;;;5141911;27;20231;-81
2021/01/18 02:10:30;;;;;;;35.75;21.33;;;-3.30;99.90;;;;;;5145285;27;20215;-81
2021/01/18 02:12:59;;;;;;;41.53;24.10;;;-3.30;99.90;;;;;;5146398;27;20227;-79
2021/01/18 02:15:38;;;;;;;40.83;23.63;;;-3.30;99.90;;;;;;5144741;27;20200;-83
2021/01/18 02:18:19;;;;;;;41.20;22.88;;;-3.30;99.90;;;;;;5139741;27;20397;-81
2021/01/18 02:21:17;;;;;;;37.58;22.92;;;-3.20;99.90;;;;;;5139916;27;20188;-82
2021/01/18 02:24:14;;;;;;;40.38;24.77;;;-3.30;99.90;;;;;;5139225;27;20204;-81
2021/01/18 02:27:03;;;;;;;32.65;20.88;;;-3.30;99.90;;;;;;5139202;27;20220;-81
2021/01/18 02:29:41;;;;;;;47.45;23.70;;;-3.30;99.90;;;;;;5139701;27;20189;-81
2021/01/18 02:32:39;;;;;;;42.83;24.13;;;-3.30;99.90;;;;;;5139797;27;20208;-81
2021/01/18 02:35:42;;;;;;;40.38;21.30;;;-3.30;99.90;;;;;;5141089;27;20236;-81
2021/01/18 02:38:20;;;;;;;49.40;27.05;;;-3.30;99.90;;;;;;5132215;27;20203;-81
2021/01/18 02:40:55;;;;;;;44.03;24.25;;;-3.30;99.90;;;;;;5139174;27;20191;-81
2021/01/18 02:43:25;;;;;;;45.35;23.23;;;-3.30;99.90;;;;;;5139090;27;20605;-81
2021/01/18 02:45:52;;;;;;;36.50;21.15;;;-3.40;99.90;;;;;;5138472;27;20705;-81
2021/01/18 02:48:21;;;;;;;46.95;25.98;;;-3.40;99.90;;;;;;5138999;27;20212;-80
2021/01/18 02:50:50;;;;;;;50.75;25.77;;;-3.40;99.90;;;;;;5138945;27;20207;-80
2021/01/18 02:53:17;;;;;;;44.05;22.70;;;-3.40;99.90;;;;;;5138817;27;20221;-81
2021/01/18 02:55:43;;;;;;;40.13;23.70;;;-3.40;99.90;;;;;;5138650;27;20196;-81
2021/01/18 02:58:16;;;;;;;40.88;22.60;;;-3.40;99.90;;;;;;5138943;27;20212;-81
2021/01/18 03:00:49;;;;;;;40.28;23.92;;;-3.30;99.90;;;;;;5138717;27;20189;-82
2021/01/18 03:03:31;;;;;;;43.13;23.45;;;-3.30;99.90;;;;;;5138666;27;20180;-83
2021/01/18 03:06:03;;;;;;;49.20;23.60;;;-3.20;99.90;;;;;;5139018;27;20184;-80
2021/01/18 03:08:35;;;;;;;47.38;24.90;;;-3.30;99.90;;;;;;5138655;27;20181;-80
2021/01/18 03:11:06;;;;;;;44.28;24.55;;;-3.30;99.90;;;;;;5145927;27;20264;-81
2021/01/18 03:13:37;;;;;;;41.85;23.65;;;-3.30;99.90;;;;;;5145184;27;20215;-81
2021/01/18 03:16:10;;;;;;;45.03;28.38;;;-3.30;99.90;;;;;;5138482;27;20228;-82
2021/01/18 03:18:38;;;;;;;47.80;25.52;;;-3.20;99.90;;;;;;5142440;27;20275;-81
2021/01/18 03:21:05;;;;;;;48.00;27.73;;;-3.20;99.90;;;;;;5146143;27;20201;-81
2021/01/18 03:23:33;;;;;;;50.80;25.33;;;-3.20;99.90;;;;;;5146993;27;20232;-81
2021/01/18 03:26:00;;;;;;;47.03;25.98;;;-3.20;99.90;;;;;;5142191;27;20710;-81
2021/01/18 03:28:26;;;;;;;42.15;24.92;;;-3.20;99.90;;;;;;5138481;27;20239;-81
2021/01/18 03:30:52;;;;;;;46.47;27.13;;;-3.20;99.90;;;;;;5138369;27;20208;-81
2021/01/18 03:33:24;;;;;;;43.15;25.08;;;-3.30;99.90;;;;;;5137743;27;20220;-81
2021/01/18 03:35:50;;;;;;;41.33;24.63;;;-3.30;99.90;;;;;;5137997;27;20184;-81
2021/01/18 03:38:17;;;;;;;45.28;24.67;;;-3.20;99.90;;;;;;5138527;27;20200;-80
2021/01/18 03:40:44;;;;;;;38.00;25.13;;;-3.20;99.90;;;;;;5137589;27;20683;-82
2021/01/18 03:43:11;;;;;;;43.90;23.80;;;-3.20;99.90;;;;;;5138202;27;20664;-82
2021/01/18 03:45:39;;;;;;;47.58;25.65;;;-3.20;99.90;;;;;;5138118;27;20232;-80
2021/01/18 03:48:07;;;;;;;43.47;24.60;;;-3.30;99.90;;;;;;5137141;27;20221;-81
2021/01/18 03:50:34;;;;;;;45.75;23.60;;;-3.30;99.90;;;;;;5137521;27;20702;-81
2021/01/18 03:53:00;;;;;;;46.08;26.20;;;-3.40;99.90;;;;;;5137994;27;20246;-80
2021/01/18 03:55:27;;;;;;;42.38;24.20;;;-3.30;99.90;;;;;;5137421;27;20227;-81
2021/01/18 03:57:55;;;;;;;49.45;27.40;;;-3.30;99.90;;;;;;5083157;22;20464;-82
2021/01/18 04:00:24;;;;;;;43.22;25.60;;;-3.30;99.90;;;;;;5034463;28;20208;-83
2021/01/18 04:02:51;;;;;;;42.53;26.40;;;-3.30;99.90;;;;;;5034656;28;20263;-83
2021/01/18 04:05:19;;;;;;;41.80;23.83;;;-3.20;99.90;;;;;;5034483;28;20210;-82
2021/01/18 04:07:46;;;;;;;35.95;23.15;;;-3.30;99.90;;;;;;5047785;28;20225;-82
2021/01/18 04:10:14;;;;;;;47.10;24.25;;;-3.30;99.90;;;;;;5053898;28;20291;-83
2021/01/18 04:12:41;;;;;;;47.20;25.55;;;-3.20;99.90;;;;;;5053757;28;20223;-82
2021/01/18 04:15:10;;;;;;;46.13;27.27;;;-3.20;99.90;;;;;;5053576;28;20205;-83
2021/01/18 04:17:40;;;;;;;44.47;24.55;;;-3.10;99.90;;;;;;5053891;28;20306;-82
2021/01/18 04:20:07;;;;;;;48.28;25.40;;;-3.20;99.90;;;;;;5054402;27;20199;-82
2021/01/18 04:22:34;;;;;;;47.20;26.05;;;-3.20;99.90;;;;;;5060337;28;20271;-82
2021/01/18 04:25:00;;;;;;;40.70;24.48;;;-3.20;99.90;;;;;;5075435;27;20217;-82
2021/01/18 04:27:26;;;;;;;48.28;26.23;;;-3.10;99.90;;;;;;5072450;28;20223;-82
2021/01/18 04:29:53;;;;;;;45.05;27.10;;;-3.10;99.90;;;;;;5054015;28;20444;-82
2021/01/18 04:32:20;;;;;;;46.30;26.23;;;-3.10;99.90;;;;;;5054559;28;20223;-83
2021/01/18 04:34:46;;;;;;;44.05;26.00;;;-3.10;99.90;;;;;;5054727;28;20207;-83
2021/01/18 04:37:13;;;;;;;45.58;25.08;;;-3.30;99.90;;;;;;5053455;28;20313;-82
2021/01/18 04:39:40;;;;;;;39.45;24.02;;;-3.20;99.90;;;;;;5053857;28;20590;-82
2021/01/18 04:42:06;;;;;;;40.47;23.45;;;-3.10;99.90;;;;;;5052852;28;20203;-82
2021/01/18 04:44:33;;;;;;;43.63;25.52;;;-3.10;99.90;;;;;;5053519;28;20207;-83
2021/01/18 04:47:01;;;;;;;46.55;25.48;;;-3.20;99.90;;;;;;5052740;28;20265;-83
2021/01/18 04:49:29;;;;;;;43.70;25.20;;;-3.20;99.90;;;;;;5057437;28;20229;-82
2021/01/18 04:51:57;;;;;;;37.42;23.67;;;-3.10;99.90;;;;;;5074058;27;20223;-82
2021/01/18 04:54:25;;;;;;;47.67;26.40;;;-3.10;99.90;;;;;;5054263;28;20223;-82
2021/01/18 04:57:11;;;;;;;39.70;24.63;;;-3.10;99.90;;;;;;5052566;27;20242;-83
2021/01/18 04:59:40;;;;;;;43.00;23.88;;;-3.00;99.90;;;;;;5053433;28;20188;-82
2021/01/18 05:02:08;;;;;;;42.78;25.15;;;-2.90;99.90;;;;;;5053253;28;20223;-83
2021/01/18 05:04:40;;;;;;;38.83;22.00;;;-2.90;99.90;;;;;;5052828;28;20207;-83
2021/01/18 05:07:43;;;;;;;42.13;23.80;;;-2.80;99.90;;;;;;5052976;28;20359;-82
2021/01/18 05:10:11;;;;;;;49.95;25.63;;;-2.70;99.90;;;;;;5061843;28;20670;-82
2021/01/18 05:12:39;;;;;;;41.40;23.27;;;-2.90;99.90;;;;;;5057068;27;20219;-82
2021/01/18 05:15:07;;;;;;;42.63;23.67;;;-2.90;99.90;;;;;;5056479;27;20199;-82
2021/01/18 05:17:41;;;;;;;39.17;24.52;;;-2.90;99.90;;;;;;5056072;28;20223;-83
2021/01/18 05:20:10;;;;;;;42.47;26.77;;;-2.90;99.90;;;;;;5055903;28;20187;-83
2021/01/18 05:22:37;;;;;;;42.13;26.25;;;-2.90;99.90;;;;;;5055506;28;20440;-82
2021/01/18 05:25:07;;;;;;;47.15;26.73;;;-2.90;99.90;;;;;;5055985;28;20237;-82
2021/01/18 05:27:33;;;;;;;53.53;28.98;;;-2.80;99.90;;;;;;5056959;28;20638;-82
2021/01/18 05:30:00;;;;;;;45.25;26.17;;;-2.80;99.90;;;;;;5056346;28;20673;-82
2021/01/18 05:32:27;;;;;;;41.80;24.70;;;-2.80;99.90;;;;;;5055265;28;20398;-82
2021/01/18 05:35:11;;;;;;;46.40;28.88;;;-2.70;99.90;;;;;;5054957;27;20905;-82
2021/01/18 05:37:56;;;;;;;42.88;26.90;;;-2.70;99.90;;;;;;5055994;28;20326;-82
2021/01/18 05:40:23;;;;;;;44.15;25.23;;;-2.60;99.90;;;;;;5055110;28;20183;-82
2021/01/18 05:42:51;;;;;;;43.90;24.15;;;-2.60;99.90;;;;;;5056071;27;20195;-82
2021/01/18 05:45:27;;;;;;;39.70;24.45;;;-2.70;99.90;;;;;;5056007;27;20211;-83
2021/01/18 05:47:54;;;;;;;43.05;24.23;;;-2.70;99.90;;;;;;5057068;28;20218;-83
2021/01/18 05:50:23;;;;;;;44.60;24.15;;;-2.70;99.90;;;;;;5066527;28;20221;-82
2021/01/18 05:52:50;;;;;;;40.92;24.40;;;-2.60;99.90;;;;;;5070391;28;20231;-82
2021/01/18 05:55:18;;;;;;;38.50;25.92;;;-2.70;99.90;;;;;;5070820;28;20199;-82
2021/01/18 05:57:50;;;;;;;36.50;23.17;;;-2.60;99.90;;;;;;5067354;27;20238;-82
2021/01/18 06:00:24;;;;;;;41.17;23.35;;;-2.60;99.90;;;;;;5061193;27;20251;-82
2021/01/18 06:02:51;;;;;;;42.80;22.25;;;-2.50;99.90;;;;;;5057382;27;20635;-83
2021/01/18 06:05:27;;;;;;;41.88;24.80;;;-2.50;99.90;;;;;;5057542;28;20227;-83
2021/01/18 06:07:55;;;;;;;37.00;22.42;;;-2.60;99.90;;;;;;5063853;27;20313;-82
2021/01/18 06:10:33;;;;;;;41.13;24.10;;;-2.60;99.90;;;;;;5071203;28;20237;-82
2021/01/18 06:12:59;;;;;;;42.65;25.45;;;-2.50;99.90;;;;;;5072401;28;20687;-82
2021/01/18 06:15:26;;;;;;;37.80;22.80;;;-2.60;99.90;;;;;;5070210;28;20211;-82
2021/01/18 06:17:56;;;;;;;42.50;23.42;;;-2.60;99.90;;;;;;5063538;28;20223;-83
2021/01/18 06:20:24;;;;;;;40.08;24.02;;;-2.60;99.90;;;;;;5056241;27;20211;-82
2021/01/18 06:22:51;;;;;;;42.38;26.17;;;-2.50;99.90;;;;;;5056305;28;20198;-82
2021/01/18 06:25:20;;;;;;;42.17;24.05;;;-2.60;99.90;;;;;;5058699;28;20709;-83
2021/01/18 06:27:46;;;;;;;42.63;24.95;;;-2.70;99.90;;;;;;5055764;28;20219;-83
2021/01/18 06:30:34;;;;;;;36.65;22.10;;;-2.70;99.90;;;;;;5056529;28;20209;-82
2021/01/18 06:33:10;;;;;;;34.53;21.50;;;-2.70;99.90;;;;;;5057356;27;20296;-82
2021/01/18 06:35:37;;;;;;;42.15;24.70;;;-2.70;99.90;;;;;;5056026;28;20187;-82
2021/01/18 06:38:06;;;;;;;47.05;24.30;;;-2.60;99.90;;;;;;5055542;28;20223;-83
2021/01/18 06:40:36;;;;;;;48.92;26.60;;;-2.60;99.90;;;;;;5060640;28;20217;-83
2021/01/18 06:43:04;;;;;;;42.38;23.23;;;-2.50;99.90;;;;;;5058361;27;20282;-83
2021/01/18 06:45:32;;;;;;;46.03;28.00;;;-2.60;99.90;;;;;;5056689;28;20209;-83
2021/01/18 06:47:59;;;;;;;44.65;24.45;;;-2.50;99.90;;;;;;5056345;28;20234;-83
2021/01/18 06:50:30;;;;;;;39.85;23.90;;;-2.60;99.90;;;;;;5056392;28;20210;-83
2021/01/18 06:52:57;;;;;;;45.20;24.85;;;-2.50;99.90;;;;;;5056662;28;20241;-83
2021/01/18 06:55:26;;;;;;;40.50;22.42;;;-2.60;99.90;;;;;;5055770;27;20504;-83
2021/01/18 06:58:30;;;;;;;45.45;25.08;;;-2.60;99.90;;;;;;5055266;28;20284;-82
2021/01/18 07:00:59;;;;;;;42.78;23.15;;;-2.60;99.90;;;;;;5055239;28;20183;-82
2021/01/18 07:03:40;;;;;;;47.75;26.42;;;-2.60;99.90;;;;;;5055110;27;20203;-83
2021/01/18 07:06:34;;;;;;;43.72;25.98;;;-2.70;99.90;;;;;;5054848;27;20202;-82
2021/01/18 07:09:03;;;;;;;47.40;27.35;;;-2.60;99.90;;;;;;5055679;28;20193;-81
2021/01/18 07:11:30;;;;;;;43.03;26.17;;;-2.60;99.90;;;;;;5055597;28;20293;-81
2021/01/18 07:13:57;;;;;;;43.10;26.40;;;-2.60;99.90;;;;;;5055936;28;20240;-83
2021/01/18 07:16:25;;;;;;;42.85;25.00;;;-2.60;99.90;;;;;;5056067;28;20227;-81
2021/01/18 07:18:54;;;;;;;44.50;25.67;;;-2.60;99.90;;;;;;5055289;28;20266;-82
2021/01/18 07:21:26;;;;;;;49.70;26.50;;;-2.60;99.90;;;;;;5055275;28;20218;-84
2021/01/18 07:23:57;;;;;;;44.38;24.08;;;-2.60;99.90;;;;;;5055437;27;20179;-81
2021/01/18 07:26:56;;;;;;;48.88;26.52;;;-2.40;99.90;;;;;;5055613;28;20249;-82
2021/01/18 07:29:25;;;;;;;45.85;26.55;;;-2.30;99.90;;;;;;5056479;27;20275;-82
2021/01/18 07:31:53;;;;;;;39.08;24.60;;;-2.30;99.90;;;;;;5055691;27;20203;-82
2021/01/18 07:34:29;;;;;;;42.00;24.75;;;-2.20;99.90;;;;;;5056569;28;20359;-82
2021/01/18 07:37:07;;;;;;;50.63;28.10;;;-2.30;99.90;;;;;;5058278;27;20282;-82
2021/01/18 07:39:35;;;;;;;62.03;32.30;;;-2.40;99.90;;;;;;5055933;28;20663;-82
2021/01/18 07:42:02;;;;;;;43.38;27.63;;;-2.30;99.90;;;;;;5054478;28;20644;-82
2021/01/18 07:44:38;;;;;;;43.28;27.13;;;-2.40;99.90;;;;;;5054909;28;20200;-81
2021/01/18 07:47:06;;;;;;;42.72;24.83;;;-2.30;99.90;;;;;;5055521;27;20600;-82
2021/01/18 07:49:41;;;;;;;50.25;28.10;;;-2.30;99.90;;;;;;5058437;27;20202;-81
2021/01/18 07:52:18;;;;;;;44.22;26.90;;;-2.30;99.90;;;;;;5060553;27;20695;-81
2021/01/18 07:54:46;;;;;;;46.95;29.42;;;-2.20;99.90;;;;;;5060761;28;20272;-83
2021/01/18 07:57:40;;;;;;;46.53;28.63;;;-2.20;99.90;;;;;;5060181;28;20235;-82
2021/01/18 08:00:27;;;;;;;53.58;28.58;;;-2.20;99.90;;;;;;5057955;28;20191;-81
2021/01/18 08:02:56;;;;;;;47.33;28.52;;;-2.20;99.90;;;;;;5054889;27;20213;-81
2021/01/18 08:05:27;;;;;;;51.22;27.35;;;-2.20;99.90;;;;;;5057093;28;20203;-81
2021/01/18 08:08:07;;;;;;;42.35;26.52;;;-2.10;99.90;;;;;;5059673;27;20734;-82
2021/01/18 08:10:50;;;;;;;46.10;27.75;;;-2.10;99.90;;;;;;5058857;28;20258;-81
2021/01/18 08:13:54;;;;;;;42.08;26.08;;;-2.20;99.90;;;;;;5056013;28;20203;-82
2021/01/18 08:16:43;;;;;;;47.85;26.38;;;-2.20;99.90;;;;;;5055829;27;20258;-81
2021/01/18 08:19:24;;;;;;;43.90;26.58;;;-2.20;99.90;;;;;;5054738;28;20188;-82
2021/01/18 08:22:09;;;;;;;52.17;27.10;;;-2.20;99.90;;;;;;5055089;27;20211;-81
2021/01/18 08:25:03;;;;;;;45.72;27.27;;;-2.10;99.90;;;;;;5054691;27;20195;-81
2021/01/18 08:27:38;;;;;;;46.92;26.73;;;-2.10;99.90;;;;;;5054811;28;20306;-81
2021/01/18 08:30:37;;;;;;;45.13;28.35;;;-2.10;99.90;;;;;;5055147;27;20210;-82
2021/01/18 08:33:09;;;;;;;45.85;27.83;;;-2.10;99.90;;;;;;5124123;27;20277;-80
2021/01/18 08:35:43;;;;;;;42.97;26.98;;;-2.00;99.90;;;;;;5055574;28;20207;-83
2021/01/18 08:38:10;;;;;;;42.22;27.83;;;-2.00;99.90;;;;;;5055825;27;20227;-81
2021/01/18 08:40:43;;;;;;;40.47;25.80;;;-2.00;99.90;;;;;;5056137;28;20236;-80
2021/01/18 08:43:11;;;;;;;45.50;27.90;;;-2.10;99.90;;;;;;5061317;27;20310;-80
2021/01/18 08:45:40;;;;;;;49.65;26.65;;;-2.00;99.90;;;;;;5054071;28;20270;-81
2021/01/18 08:48:09;;;;;;;44.83;26.83;;;-2.00;99.90;;;;;;5053159;28;20227;-81
2021/01/18 08:50:54;;;;;;;46.20;28.13;;;-2.00;99.90;;;;;;5061383;28;20278;-81
2021/01/18 08:53:30;;;;;;;44.38;25.10;;;-2.00;99.90;;;;;;5060901;28;20281;-81
2021/01/18 08:55:59;;;;;;;52.00;29.20;;;-1.90;99.90;;;;;;5057795;27;20242;-82
2021/01/18 08:58:42;;;;;;;49.78;28.70;;;-1.90;99.90;;;;;;5061027;28;20231;-80
2021/01/18 09:01:11;;;;;;;43.47;28.20;;;-1.80;99.90;;;;;;5062222;28;20205;-81
2021/01/18 09:03:39;;;;;;;46.08;27.35;;;-1.70;99.90;;;;;;5067026;28;20289;-80
2021/01/18 09:06:06;;;;;;;42.70;27.70;;;-1.70;99.90;;;;;;5058005;28;20581;-81
2021/01/18 09:08:32;;;;;;;46.53;28.20;;;-1.80;99.90;;;;;;5058084;28;20267;-80
2021/01/18 09:11:01;;;;;;;49.22;29.05;;;-1.70;99.90;;;;;;5060812;28;20211;-82
2021/01/18 09:13:29;;;;;;;46.30;28.30;;;-1.60;99.90;;;;;;5055022;27;20223;-82
2021/01/18 09:15:57;;;;;;;54.03;31.45;;;-1.70;99.90;;;;;;5052930;28;20199;-82
2021/01/18 09:18:25;;;;;;;44.58;25.17;;;-1.60;99.90;;;;;;5053098;28;20314;-82
2021/01/18 09:20:54;;;;;;;48.90;28.73;;;-1.50;99.90;;;;;;5053938;27;20222;-82
2021/01/18 09:23:20;;;;;;;51.35;28.13;;;-1.50;99.90;;;;;;5053781;28;20213;-82
2021/01/18 09:25:56;;;;;;;44.70;26.48;;;-1.50;99.90;;;;;;5053876;28;20635;-82
2021/01/18 09:28:22;;;;;;;43.90;27.80;;;-1.50;99.90;;;;;;5054085;28;20258;-81
2021/01/18 09:30:48;;;;;;;45.53;27.73;;;-1.40;99.90;;;;;;5056034;28;20371;-82
2021/01/18 09:33:15;;;;;;;43.90;27.30;;;-1.30;99.90;;;;;;5062064;27;20314;-82
2021/01/18 09:35:43;;;;;;;48.05;28.73;;;-1.40;99.90;;;;;;5062837;27;20199;-82
2021/01/18 09:38:12;;;;;;;44.97;26.88;;;-1.40;99.90;;;;;;5067726;28;20237;-82
2021/01/18 09:40:40;;;;;;;54.38;30.10;;;-1.40;99.90;;;;;;5072040;28;20206;-81
2021/01/18 09:43:08;;;;;;;46.72;28.08;;;-1.40;99.90;;;;;;5073192;28;20187;-81
2021/01/18 09:45:35;;;;;;;45.45;27.80;;;-1.40;99.90;;;;;;5058148;28;20203;-80
2021/01/18 09:48:04;;;;;;;48.65;30.10;;;-1.40;99.90;;;;;;5052653;27;20223;-81
2021/01/18 09:50:32;;;;;;;49.97;28.80;;;-1.30;99.90;;;;;;5057471;27;20222;-83
2021/01/18 09:52:59;;;;;;;48.47;29.25;;;-1.30;99.90;;;;;;5056179;27;20223;-80
2021/01/18 09:55:28;;;;;;;49.20;30.15;;;-1.30;99.90;;;;;;5055099;28;20203;-82
2021/01/18 09:58:01;;;;;;;57.33;31.33;;;-1.30;99.90;;;;;;5125105;22;20365;-81
2021/01/18 10:00:30;;;;;;;53.50;33.90;;;-1.30;99.90;;;;;;5145310;27;20211;-80
2021/01/18 10:02:59;;;;;;;50.80;30.85;;;-1.30;99.90;;;;;;5148409;27;20196;-80
2021/01/18 10:05:30;;;;;;;47.83;30.00;;;-1.20;99.90;;;;;;5144746;27;20200;-81
2021/01/18 10:07:58;;;;;;;51.25;34.33;;;-1.20;99.90;;;;;;5145927;27;20220;-81
2021/01/18 10:10:26;;;;;;;53.72;33.95;;;-1.20;99.90;;;;;;5161279;27;20612;-82
2021/01/18 10:12:54;;;;;;;50.75;30.85;;;-1.10;99.90;;;;;;5162506;27;20223;-82
2021/01/18 10:15:26;;;;;;;45.00;28.85;;;-1.10;99.90;;;;;;5162377;27;20286;-82
2021/01/18 10:17:56;;;;;;;62.25;38.97;;;-1.10;99.90;;;;;;5163691;27;20773;-80
2021/01/18 10:20:28;;;;;;;47.55;30.95;;;-1.00;99.90;;;;;;5165739;27;20199;-80
2021/01/18 10:22:56;;;;;;;49.15;31.83;;;-1.00;99.90;;;;;;5162341;27;20227;-80
2021/01/18 10:25:28;;;;;;;54.47;31.92;;;-1.00;99.90;;;;;;5162078;27;20566;-81
2021/01/18 10:27:56;;;;;;;53.70;31.17;;;-0.90;99.90;;;;;;5160974;27;20219;-81
2021/01/18 10:30:25;;;;;;;44.83;29.73;;;-0.90;99.90;;;;;;5168312;27;20204;-79
2021/01/18 10:32:53;;;;;;;51.90;28.77;;;-0.80;99.90;;;;;;5162479;27;20219;-81
2021/01/18 10:35:28;;;;;;;52.05;30.60;;;-1.00;99.90;;;;;;5160143;27;20222;-84
2021/01/18 10:38:17;;;;;;;44.20;28.25;;;-1.10;99.90;;;;;;5159493;27;20238;-81
2021/01/18 10:41:00;;;;;;;48.25;28.73;;;-0.90;99.90;;;;;;5159633;27;20555;-80
2021/01/18 10:43:28;;;;;;;54.53;31.90;;;-0.80;99.90;;;;;;5159739;27;20188;-81
2021/01/18 10:45:56;;;;;;;51.95;30.30;;;-0.90;99.90;;;;;;5161159;27;20203;-81
2021/01/18 10:48:33;;;;;;;48.70;30.20;;;-1.00;99.90;;;;;;5161262;27;20231;-80
2021/01/18 10:51:02;;;;;;;45.65;30.13;;;-0.80;99.90;;;;;;5161163;27;20199;-82
2021/01/18 10:53:31;;;;;;;47.67;28.60;;;-0.70;99.90;;;;;;5160581;27;20691;-81
2021/01/18 10:56:12;;;;;;;50.40;29.55;;;-0.80;99.90;;;;;;5160703;27;20199;-81
2021/01/18 10:58:39;;;;;;;52.78;31.35;;;-0.60;99.90;;;;;;5159910;27;20249;-81
2021/01/18 11:01:10;;;;;;;48.65;32.15;;;-0.40;99.90;;;;;;5160698;27;20210;-81
2021/01/18 11:03:37;;;;;;;47.47;30.13;;;-0.40;99.90;;;;;;5165708;27;20196;-80
2021/01/18 11:06:11;;;;;;;45.45;31.58;;;-0.50;99.90;;;;;;5169128;27;20263;-80
2021/01/18 11:08:38;;;;;;;47.88;31.17;;;-0.50;99.90;;;;;;5165190;27;20302;-81
2021/01/18 11:11:18;;;;;;;56.28;32.60;;;-0.50;99.90;;;;;;5160896;27;20568;-81
2021/01/18 11:13:45;;;;;;;78.40;44.38;;;-0.40;99.90;;;;;;5160395;27;20215;-82
2021/01/18 11:16:12;;;;;;;47.28;31.08;;;-0.50;99.90;;;;;;5160884;27;20274;-80
2021/01/18 11:18:39;;;;;;;54.45;31.00;;;-0.50;99.90;;;;;;5160100;27;20224;-82
2021/01/18 11:21:06;;;;;;;50.92;31.98;;;-0.50;99.90;;;;;;5160382;27;20671;-82
2021/01/18 11:23:32;;;;;;;54.65;31.73;;;-0.30;99.90;;;;;;5161388;27;20683;-81
2021/01/18 11:25:58;;;;;;;49.15;30.45;;;-0.30;99.90;;;;;;5159055;27;20664;-79
2021/01/18 11:28:26;;;;;;;53.00;32.13;;;-0.10;99.90;;;;;;5159990;27;20635;-81
2021/01/18 11:30:53;;;;;;;51.95;31.25;;;-0.10;99.90;;;;;;5159263;27;20210;-80
2021/01/18 11:33:21;;;;;;;51.55;32.00;;;-0.20;99.90;;;;;;5160180;27;20262;-81
2021/01/18 11:35:48;;;;;;;44.67;29.02;;;-0.10;99.90;;;;;;5159965;27;20208;-79
2021/01/18 11:38:15;;;;;;;54.20;32.90;;;-0.20;99.90;;;;;;5160611;27;20272;-80
2021/01/18 11:40:42;;;;;;;52.67;30.50;;;-0.20;99.90;;;;;;5168968;27;20214;-79
2021/01/18 11:43:08;;;;;;;57.90;30.73;;;0.00;99.90;;;;;;5166638;27;20682;-79
2021/01/18 11:45:39;;;;;;;49.30;29.48;;;-0.20;99.90;;;;;;5165754;27;20295;-80
2021/01/18 11:48:07;;;;;;;56.47;33.03;;;-0.10;99.90;;;;;;5161596;27;20250;-82
2021/01/18 11:50:34;;;;;;;54.08;31.88;;;-0.30;99.90;;;;;;5164394;27;20199;-82
2021/01/18 11:53:00;;;;;;;67.00;35.60;;;-0.40;99.90;;;;;;5160799;27;20302;-81
2021/01/18 11:55:27;;;;;;;56.00;34.30;;;-0.30;99.90;;;;;;5161752;27;20231;-80
2021/01/18 11:57:54;;;;;;;55.63;33.20;;;-0.40;99.90;;;;;;5159747;27;20263;-80
2021/01/18 12:00:22;;;;;;;56.85;32.22;;;-0.30;99.90;;;;;;5162321;27;20210;-79
2021/01/18 12:02:53;;;;;;;59.92;34.65;;;-0.30;99.90;;;;;;5169722;27;20259;-81
2021/01/18 12:05:22;;;;;;;67.75;36.58;;;-0.20;99.90;;;;;;5173237;27;20624;-80
2021/01/18 12:07:48;;;;;;;61.92;34.85;;;-0.10;99.90;;;;;;5166679;27;20722;-81
2021/01/18 12:10:15;;;;;;;59.85;33.55;;;0.00;99.90;;;;;;5159236;27;20279;-81
2021/01/18 12:12:43;;;;;;;50.65;33.08;;;0.00;99.90;;;;;;5159647;27;20227;-79
2021/01/18 12:15:11;;;;;;;58.92;33.58;;;0.10;99.90;;;;;;5162885;27;20283;-81
2021/01/18 12:17:38;;;;;;;59.28;32.80;;;0.10;99.90;;;;;;5160298;27;20247;-81
2021/01/18 12:20:09;;;;;;;62.42;34.90;;;0.20;99.90;;;;;;5159043;27;20203;-83
2021/01/18 12:22:36;;;;;;;57.83;34.25;;;0.20;99.90;;;;;;5161217;27;20191;-81
2021/01/18 12:25:03;;;;;;;56.17;34.13;;;0.20;99.90;;;;;;5166959;27;20211;-80
2021/01/18 12:27:29;;;;;;;60.38;36.78;;;0.40;99.90;;;;;;5164109;27;20356;-82
2021/01/18 12:29:55;;;;;;;66.80;35.10;;;0.30;99.90;;;;;;5159075;27;20196;-81
2021/01/18 12:32:22;;;;;;;62.80;35.85;;;0.20;99.90;;;;;;5158873;27;20208;-80
2021/01/18 12:34:48;;;;;;;60.22;37.58;;;0.20;99.90;;;;;;5158451;27;20203;-81
2021/01/18 12:37:15;;;;;;;64.30;41.05;;;0.40;99.90;;;;;;5160376;27;20227;-80
2021/01/18 12:39:42;;;;;;;69.13;37.03;;;0.40;99.90;;;;;;5160020;27;20203;-80
2021/01/18 12:42:08;;;;;;;66.72;38.08;;;0.30;99.90;;;;;;5160936;27;20290;-81
2021/01/18 12:44:35;;;;;;;67.45;38.13;;;0.30;99.90;;;;;;5159909;27;20202;-82